Time;durP1;ratioP1;P1;durP2;ratioP2;P2;SDS_P1;SDS_P2;PMS_P1;PMS_P2;Temp;Humidity;BMP_temperature;BMP_pressure;BME280_temperature;BME280_humidity;BME280_pressure;Samples;Min_cycle;Max_cycle;Signal;HPM_P1;HPM_P2
2024/01/06 00:01:40;;;;;;;1999.90;999.90;;;2.30;99.90;;;;;;4994954;28;20046;-77
2024/01/06 00:04:06;;;;;;;1999.90;999.90;;;2.30;99.90;;;;;;4999311;28;20046;-78
2024/01/06 00:06:32;;;;;;;1999.90;999.90;;;2.30;99.90;;;;;;5000726;28;20414;-77
2024/01/06 00:08:58;;;;;;;1999.90;999.90;;;2.30;99.90;;;;;;4999038;28;20069;-77
2024/01/06 00:11:23;;;;;;;1999.90;999.90;;;2.30;99.90;;;;;;5002853;28;20077;-77
2024/01/06 00:13:49;;;;;;;1999.90;999.90;;;2.20;99.90;;;;;;5001345;28;20057;-77
2024/01/06 00:16:19;;;;;;;1999.90;999.90;;;2.20;99.90;;;;;;4999862;28;20038;-77
2024/01/06 00:18:45;;;;;;;1999.90;999.90;;;2.20;99.90;;;;;;5005413;28;20050;-77
2024/01/06 00:21:11;;;;;;;1999.90;999.90;;;2.20;99.90;;;;;;5001721;28;20045;-78
2024/01/06 00:23:37;;;;;;;1999.90;999.90;;;2.20;99.90;;;;;;5001920;28;20038;-78
2024/01/06 00:26:04;;;;;;;1999.90;999.90;;;2.20;99.90;;;;;;5002677;28;20034;-77
2024/01/06 00:28:29;;;;;;;1999.90;999.90;;;2.20;99.90;;;;;;4998978;28;20483;-77
2024/01/06 00:30:55;;;;;;;1999.90;999.90;;;2.20;99.90;;;;;;5002125;28;20049;-78
2024/01/06 00:33:21;;;;;;;1999.90;999.90;;;2.20;99.90;;;;;;5005395;28;20038;-78
2024/01/06 00:35:46;;;;;;;1999.90;999.90;;;2.10;99.90;;;;;;5000605;28;20047;-77
2024/01/06 00:38:12;;;;;;;1999.90;999.90;;;2.10;99.90;;;;;;5002630;28;20042;-78
2024/01/06 00:40:38;;;;;;;1999.90;999.90;;;2.10;99.90;;;;;;5004291;28;20532;-77
2024/01/06 00:43:04;;;;;;;1999.90;999.90;;;2.20;99.90;;;;;;5001922;28;20072;-77
2024/01/06 00:45:30;;;;;;;1999.90;999.90;;;2.10;99.90;;;;;;5001085;28;20491;-78
2024/01/06 00:47:56;;;;;;;1999.90;999.90;;;2.10;99.90;;;;;;4988676;28;20609;-77
2024/01/06 00:50:22;;;;;;;1999.90;999.90;;;2.10;99.90;;;;;;5000340;28;20040;-77
2024/01/06 00:52:47;;;;;;;1999.90;999.90;;;2.10;99.90;;;;;;4984095;28;20069;-77
2024/01/06 00:55:13;;;;;;;1999.90;999.90;;;2.10;99.90;;;;;;4985051;28;20080;-77
2024/01/06 00:57:38;;;;;;;1999.90;999.90;;;2.20;99.90;;;;;;5011053;28;20038;-77
2024/01/06 01:00:05;;;;;;;1999.90;999.90;;;2.10;99.90;;;;;;5000501;28;20033;-78
2024/01/06 01:02:31;;;;;;;1999.90;999.90;;;2.10;99.90;;;;;;4981509;28;20042;-78
2024/01/06 01:04:57;;;;;;;1999.90;999.90;;;2.10;99.90;;;;;;4980085;28;20141;-77
2024/01/06 01:07:24;;;;;;;1999.90;999.90;;;2.10;99.90;;;;;;5005058;28;20151;-77
2024/01/06 01:09:49;;;;;;;1999.90;999.90;;;2.10;99.90;;;;;;5002861;28;20044;-77
2024/01/06 01:12:15;;;;;;;1999.90;999.90;;;2.10;99.90;;;;;;4990900;28;20046;-77
2024/01/06 01:14:41;;;;;;;1999.90;999.90;;;2.10;99.90;;;;;;4987587;28;20042;-77
2024/01/06 01:17:06;;;;;;;1999.90;999.90;;;2.00;99.90;;;;;;5005455;28;20045;-79
2024/01/06 01:19:32;;;;;;;1999.90;999.90;;;2.00;99.90;;;;;;4985753;28;20469;-78
2024/01/06 01:21:57;;;;;;;1999.90;999.90;;;2.00;99.90;;;;;;4986287;28;20038;-77
2024/01/06 01:24:23;;;;;;;1999.90;999.90;;;2.00;99.90;;;;;;4997841;28;20121;-77
2024/01/06 01:26:49;;;;;;;1999.90;999.90;;;1.90;99.90;;;;;;4985841;28;20030;-78
2024/01/06 01:29:16;;;;;;;1999.90;999.90;;;1.90;99.90;;;;;;4983486;28;20030;-77
2024/01/06 01:31:42;;;;;;;1999.90;999.90;;;2.00;99.90;;;;;;5004291;28;20056;-78
2024/01/06 01:34:08;;;;;;;1999.90;999.90;;;1.90;99.90;;;;;;5002988;28;20042;-77
2024/01/06 01:36:33;;;;;;;1999.90;999.90;;;1.90;99.90;;;;;;5003864;28;20041;-77
2024/01/06 01:38:59;;;;;;;1999.90;999.90;;;1.90;99.90;;;;;;4985056;28;20494;-77
2024/01/06 01:41:25;;;;;;;1999.90;999.90;;;1.90;99.90;;;;;;4988069;28;20458;-77
2024/01/06 01:43:57;;;;;;;1999.90;999.90;;;1.90;99.90;;;;;;4997607;28;20037;-77
2024/01/06 01:46:28;;;;;;;1999.90;999.90;;;1.90;99.90;;;;;;4999939;28;20053;-77
2024/01/06 01:48:58;;;;;;;1999.90;999.90;;;1.80;99.90;;;;;;5001963;28;20046;-78
2024/01/06 01:51:28;;;;;;;1999.90;999.90;;;1.80;99.90;;;;;;5001223;28;20038;-77
2024/01/06 01:53:54;;;;;;;1999.90;999.90;;;1.80;99.90;;;;;;4984004;28;20074;-77
2024/01/06 01:56:20;;;;;;;1999.90;999.90;;;1.80;99.90;;;;;;5002827;28;20046;-78
2024/01/06 01:58:47;;;;;;;1999.90;999.90;;;1.70;99.90;;;;;;5003634;28;20069;-77
2024/01/06 02:01:13;;;;;;;1999.90;999.90;;;1.80;99.90;;;;;;5002894;28;20042;-78
2024/01/06 02:03:43;;;;;;;1999.90;999.90;;;1.70;99.90;;;;;;5003741;28;20034;-77
2024/01/06 02:06:09;;;;;;;1999.90;999.90;;;1.70;99.90;;;;;;5002401;28;20039;-78
2024/01/06 02:08:34;;;;;;;1999.90;999.90;;;1.70;99.90;;;;;;5005679;28;20402;-77
2024/01/06 02:11:00;;;;;;;1999.90;999.90;;;1.70;99.90;;;;;;5000019;28;20046;-77
2024/01/06 02:13:34;;;;;;;1999.90;999.90;;;1.70;99.90;;;;;;5001931;28;20054;-77
2024/01/06 02:16:00;;;;;;;1999.90;999.90;;;1.60;99.90;;;;;;4982165;28;20040;-77
2024/01/06 02:18:26;;;;;;;1999.90;999.90;;;1.60;99.90;;;;;;5005337;28;20062;-77
2024/01/06 02:20:55;;;;;;;1999.90;999.90;;;1.70;99.90;;;;;;5004235;28;20042;-77
2024/01/06 02:23:20;;;;;;;1999.90;999.90;;;1.70;99.90;;;;;;5009881;28;20117;-76
2024/01/06 02:25:46;;;;;;;1999.90;999.90;;;1.60;99.90;;;;;;5001141;28;20113;-77
2024/01/06 02:28:11;;;;;;;1999.90;999.90;;;1.60;99.90;;;;;;5003697;28;20038;-77
2024/01/06 02:30:38;;;;;;;1999.90;999.90;;;1.60;99.90;;;;;;4998815;28;20050;-78
2024/01/06 02:33:04;;;;;;;1999.90;999.90;;;1.60;99.90;;;;;;5008838;28;20045;-77
2024/01/06 02:35:29;;;;;;;1999.90;999.90;;;1.60;99.90;;;;;;4998232;28;20046;-78
2024/01/06 02:37:55;;;;;;;1999.90;999.90;;;1.60;99.90;;;;;;5010701;28;20037;-78
2024/01/06 02:40:20;;;;;;;1999.90;999.90;;;1.50;99.90;;;;;;5001403;28;20042;-77
2024/01/06 02:42:46;;;;;;;1999.90;999.90;;;1.50;99.90;;;;;;5006506;28;20075;-78
2024/01/06 02:45:12;;;;;;;1999.90;999.90;;;1.50;99.90;;;;;;4991850;28;20522;-78
2024/01/06 02:47:37;;;;;;;1999.90;999.90;;;1.50;99.90;;;;;;5000174;28;20046;-77
2024/01/06 02:50:04;;;;;;;1999.90;999.90;;;1.50;99.90;;;;;;5006832;28;20571;-77
2024/01/06 02:52:29;;;;;;;1999.90;999.90;;;1.50;99.90;;;;;;4984129;28;20077;-77
2024/01/06 02:54:55;;;;;;;1999.90;999.90;;;1.50;99.90;;;;;;5000726;28;20515;-77
2024/01/06 02:57:21;;;;;;;1999.90;999.90;;;1.50;99.90;;;;;;4997486;28;20042;-77
2024/01/06 02:59:46;;;;;;;1999.90;999.90;;;1.50;99.90;;;;;;4996281;28;20077;-77
2024/01/06 03:02:12;;;;;;;1999.90;999.90;;;1.50;99.90;;;;;;4999493;28;20637;-78
2024/01/06 03:04:37;;;;;;;1999.90;999.90;;;1.50;99.90;;;;;;4999857;28;20084;-78
2024/01/06 03:07:03;;;;;;;1999.90;999.90;;;1.50;99.90;;;;;;5002088;28;20045;-77
2024/01/06 03:09:29;;;;;;;1999.90;999.90;;;1.50;99.90;;;;;;4999065;28;20152;-77
2024/01/06 03:11:54;;;;;;;1999.90;999.90;;;1.60;99.90;;;;;;4984489;28;20044;-77
2024/01/06 03:14:20;;;;;;;1999.90;999.90;;;2.20;99.90;;;;;;5001119;28;20072;-77
2024/01/06 03:16:45;;;;;;;1999.90;999.90;;;1.60;99.90;;;;;;5004205;28;20673;-77
2024/01/06 03:19:11;;;;;;;1999.90;999.90;;;1.60;99.90;;;;;;4997702;28;20490;-78
2024/01/06 03:21:37;;;;;;;1999.90;999.90;;;1.60;99.90;;;;;;4998800;28;20097;-78
2024/01/06 03:24:04;;;;;;;1999.90;999.90;;;1.50;99.90;;;;;;4983762;28;20745;-78
2024/01/06 03:26:29;;;;;;;1999.90;999.90;;;1.50;99.90;;;;;;4999021;28;20034;-77
2024/01/06 03:28:55;;;;;;;1999.90;999.90;;;1.50;99.90;;;;;;5003184;28;20044;-78
2024/01/06 03:31:22;;;;;;;1999.90;999.90;;;1.40;99.90;;;;;;4998826;28;20430;-77
2024/01/06 03:33:47;;;;;;;1999.90;999.90;;;1.40;99.90;;;;;;5002293;28;20113;-78
2024/01/06 03:36:15;;;;;;;1999.90;999.90;;;1.40;99.90;;;;;;5013413;28;20038;-77
2024/01/06 03:38:41;;;;;;;1999.90;999.90;;;1.30;99.90;;;;;;5000718;28;20149;-77
2024/01/06 03:41:07;;;;;;;1999.90;999.90;;;1.40;99.90;;;;;;5000716;28;20073;-77
2024/01/06 03:43:33;;;;;;;1999.90;999.90;;;1.30;99.90;;;;;;4999363;28;20049;-76
2024/01/06 03:46:00;;;;;;;1999.90;999.90;;;1.30;99.90;;;;;;4986407;28;20088;-77
2024/01/06 03:48:26;;;;;;;1999.90;999.90;;;1.30;99.90;;;;;;5001934;28;20277;-77
2024/01/06 03:50:51;;;;;;;1999.90;999.90;;;1.30;99.90;;;;;;4999030;28;20050;-77
2024/01/06 03:53:17;;;;;;;1999.90;999.90;;;1.30;99.90;;;;;;4998419;28;20036;-77
2024/01/06 03:55:43;;;;;;;1999.90;999.90;;;1.30;99.90;;;;;;5001259;28;20648;-77
2024/01/06 03:58:08;;;;;;;1999.90;999.90;;;1.30;99.90;;;;;;5003324;28;20397;-77
2024/01/06 04:00:34;;;;;;;1999.90;999.90;;;1.30;99.90;;;;;;5001476;28;20069;-77
2024/01/06 04:03:01;;;;;;;1999.90;999.90;;;1.40;99.90;;;;;;4996789;28;20038;-78
2024/01/06 04:05:26;;;;;;;1999.90;999.90;;;1.30;99.90;;;;;;5002944;28;20037;-78
2024/01/06 04:07:52;;;;;;;1999.90;999.90;;;1.30;99.90;;;;;;4996640;28;20053;-77
2024/01/06 04:10:18;;;;;;;1999.90;999.90;;;1.30;99.90;;;;;;5004800;28;20127;-79
2024/01/06 04:12:43;;;;;;;1999.90;999.90;;;1.40;99.90;;;;;;4999983;28;20398;-76
2024/01/06 04:15:09;;;;;;;1999.90;999.90;;;1.50;99.90;;;;;;5016748;28;20037;-77
2024/01/06 04:17:34;;;;;;;1999.90;999.90;;;1.30;99.90;;;;;;5002661;28;20065;-78
2024/01/06 04:20:00;;;;;;;1999.90;999.90;;;1.30;99.90;;;;;;4982094;28;20049;-77
2024/01/06 04:22:26;;;;;;;1999.90;999.90;;;1.30;99.90;;;;;;5004762;28;20523;-76
2024/01/06 04:24:51;;;;;;;1999.90;999.90;;;1.30;99.90;;;;;;4984913;28;20125;-77
2024/01/06 04:27:18;;;;;;;1999.90;999.90;;;1.30;99.90;;;;;;5001825;28;20758;-78
2024/01/06 04:29:43;;;;;;;1999.90;999.90;;;1.30;99.90;;;;;;5004651;28;20050;-77
2024/01/06 04:32:09;;;;;;;1999.90;999.90;;;1.30;99.90;;;;;;5001814;28;20049;-76
2024/01/06 04:34:34;;;;;;;1999.90;999.90;;;1.30;99.90;;;;;;5001808;28;20141;-76
2024/01/06 04:37:00;;;;;;;1999.90;999.90;;;1.30;99.90;;;;;;5001867;28;20435;-76
2024/01/06 04:39:27;;;;;;;1999.90;999.90;;;1.20;99.90;;;;;;5002507;28;20138;-76
2024/01/06 04:41:52;;;;;;;1999.90;999.90;;;1.30;99.90;;;;;;5004391;28;20125;-76
2024/01/06 04:44:20;;;;;;;1999.90;999.90;;;1.30;99.90;;;;;;5005479;28;20034;-77
2024/01/06 04:46:46;;;;;;;1999.90;999.90;;;1.30;99.90;;;;;;4999343;28;20392;-77
2024/01/06 04:49:12;;;;;;;1999.90;999.90;;;1.30;99.90;;;;;;4986443;28;20054;-77
2024/01/06 04:51:37;;;;;;;1999.90;999.90;;;1.30;99.90;;;;;;4989692;28;20565;-76
2024/01/06 04:54:03;;;;;;;1999.90;999.90;;;1.80;99.90;;;;;;5004631;28;20088;-77
2024/01/06 04:56:29;;;;;;;1999.90;999.90;;;1.30;99.90;;;;;;5004962;28;20038;-76
2024/01/06 04:58:54;;;;;;;1999.90;999.90;;;1.20;99.90;;;;;;4985213;28;20038;-76
2024/01/06 05:01:20;;;;;;;1999.90;999.90;;;1.20;99.90;;;;;;4999823;28;20038;-77
2024/01/06 05:03:46;;;;;;;1999.90;999.90;;;1.20;99.90;;;;;;4990469;28;20042;-76
2024/01/06 05:06:11;;;;;;;1999.90;999.90;;;1.20;99.90;;;;;;5001682;28;20096;-77
2024/01/06 05:08:41;;;;;;;1999.90;999.90;;;1.30;99.90;;;;;;4988224;28;20393;-77
2024/01/06 05:11:07;;;;;;;1999.90;999.90;;;1.20;99.90;;;;;;5004760;28;20451;-76
2024/01/06 05:13:32;;;;;;;1999.90;999.90;;;1.80;99.90;;;;;;5005265;28;20077;-78
2024/01/06 05:15:58;;;;;;;1999.90;999.90;;;1.30;99.90;;;;;;4984924;28;20038;-77
2024/01/06 05:18:23;;;;;;;1999.90;999.90;;;1.30;99.90;;;;;;5002862;28;20399;-76
2024/01/06 05:20:49;;;;;;;1999.90;999.90;;;1.30;99.90;;;;;;5000121;28;20050;-77
2024/01/06 05:23:15;;;;;;;1999.90;999.90;;;1.30;99.90;;;;;;4987133;28;20042;-77
2024/01/06 05:25:40;;;;;;;1999.90;999.90;;;1.30;99.90;;;;;;4989901;28;20041;-77
2024/01/06 05:28:06;;;;;;;1999.90;999.90;;;1.30;99.90;;;;;;5000226;28;20030;-77
2024/01/06 05:30:31;;;;;;;1999.90;999.90;;;1.30;99.90;;;;;;4998443;28;20070;-77
2024/01/06 05:32:57;;;;;;;1999.90;999.90;;;1.30;99.90;;;;;;5006502;28;20044;-76
2024/01/06 05:35:23;;;;;;;1999.90;999.90;;;1.30;99.90;;;;;;4996230;28;20085;-77
2024/01/06 05:37:48;;;;;;;1999.90;999.90;;;1.30;99.90;;;;;;5004222;28;20081;-76
2024/01/06 05:40:14;;;;;;;1999.90;999.90;;;1.30;99.90;;;;;;5001973;28;20046;-77
2024/01/06 05:42:40;;;;;;;1999.90;999.90;;;1.30;99.90;;;;;;4987006;28;20048;-77
2024/01/06 05:45:06;;;;;;;1999.90;999.90;;;1.30;99.90;;;;;;5000813;28;20088;-76
2024/01/06 05:47:32;;;;;;;1999.90;999.90;;;1.20;99.90;;;;;;4986010;28;20117;-77
2024/01/06 05:49:57;;;;;;;1999.90;999.90;;;1.30;99.90;;;;;;4990578;28;20491;-76
2024/01/06 05:52:25;;;;;;;1999.90;999.90;;;1.30;99.90;;;;;;5001906;28;20116;-77
2024/01/06 05:54:51;;;;;;;1999.90;999.90;;;2.10;99.90;;;;;;5002443;28;20044;-76
2024/01/06 05:57:17;;;;;;;1999.90;999.90;;;1.30;99.90;;;;;;5004615;28;20034;-77
2024/01/06 05:59:43;;;;;;;1999.90;999.90;;;1.30;99.90;;;;;;5002933;28;20065;-79
2024/01/06 06:02:09;;;;;;;1999.90;999.90;;;1.40;99.90;;;;;;4992378;28;20692;-78
2024/01/06 06:04:35;;;;;;;1999.90;999.90;;;1.40;99.90;;;;;;5015878;28;20042;-79
2024/01/06 06:07:02;;;;;;;1999.90;999.90;;;1.40;99.90;;;;;;5004511;28;20411;-76
2024/01/06 06:09:28;;;;;;;1999.90;999.90;;;1.40;99.90;;;;;;5001621;28;20038;-77
2024/01/06 06:11:54;;;;;;;1999.90;999.90;;;1.40;99.90;;;;;;5002073;28;20038;-77
2024/01/06 06:14:22;;;;;;;1999.90;999.90;;;1.40;99.90;;;;;;4988280;28;20054;-77
2024/01/06 06:16:48;;;;;;;1999.90;999.90;;;1.40;99.90;;;;;;5000246;28;20092;-77
2024/01/06 06:19:14;;;;;;;1999.90;999.90;;;1.40;99.90;;;;;;5002169;28;20132;-77
2024/01/06 06:21:39;;;;;;;1999.90;999.90;;;1.40;99.90;;;;;;5006057;28;20114;-77
2024/01/06 06:24:05;;;;;;;1999.90;999.90;;;1.40;99.90;;;;;;5004074;28;20049;-77
2024/01/06 06:26:32;;;;;;;1999.90;999.90;;;1.40;99.90;;;;;;5001406;28;20061;-77
2024/01/06 06:28:58;;;;;;;1999.90;999.90;;;1.40;99.90;;;;;;5007605;28;20449;-77
2024/01/06 06:31:23;;;;;;;1999.90;999.90;;;1.40;99.90;;;;;;5002540;28;20040;-76
2024/01/06 06:33:49;;;;;;;1999.90;999.90;;;1.40;99.90;;;;;;4999329;28;20453;-77
2024/01/06 06:36:14;;;;;;;1999.90;999.90;;;1.40;99.90;;;;;;5001385;28;20427;-77
2024/01/06 06:38:40;;;;;;;1999.90;999.90;;;1.40;99.90;;;;;;4998904;28;20124;-77
2024/01/06 06:41:06;;;;;;;1999.90;999.90;;;1.40;99.90;;;;;;5001326;28;20145;-77
2024/01/06 06:43:32;;;;;;;1999.90;999.90;;;1.40;99.90;;;;;;5003037;28;20046;-77
2024/01/06 06:45:57;;;;;;;1999.90;999.90;;;1.40;99.90;;;;;;5001863;28;20045;-77
2024/01/06 06:48:23;;;;;;;1999.90;999.90;;;1.40;99.90;;;;;;4987489;28;20124;-77
2024/01/06 06:50:49;;;;;;;1999.90;999.90;;;1.60;99.90;;;;;;4983805;28;20034;-78
2024/01/06 06:53:14;;;;;;;1999.90;999.90;;;1.40;99.90;;;;;;5007829;28;20034;-77
2024/01/06 06:55:40;;;;;;;1999.90;999.90;;;1.40;99.90;;;;;;5002982;28;20053;-78
2024/01/06 06:58:06;;;;;;;1999.90;999.90;;;1.40;99.90;;;;;;5002288;28;20470;-78
2024/01/06 07:00:32;;;;;;;1999.90;999.90;;;1.40;99.90;;;;;;4998915;28;20068;-78
2024/01/06 07:02:58;;;;;;;1999.90;999.90;;;1.40;99.90;;;;;;4999978;28;20130;-77
2024/01/06 07:05:24;;;;;;;1999.90;999.90;;;1.50;99.90;;;;;;4998983;28;20133;-77
2024/01/06 07:07:49;;;;;;;1999.90;999.90;;;1.40;99.90;;;;;;5004344;28;20039;-78
2024/01/06 07:10:15;;;;;;;1999.90;999.90;;;1.40;99.90;;;;;;4989749;28;20376;-77
2024/01/06 07:12:41;;;;;;;1999.90;999.90;;;1.50;99.90;;;;;;4983788;28;20041;-77
2024/01/06 07:15:09;;;;;;;1999.90;999.90;;;1.50;99.90;;;;;;5016681;28;20838;-77
2024/01/06 07:17:35;;;;;;;1999.90;999.90;;;1.50;99.90;;;;;;4999477;28;20133;-78
2024/01/06 07:20:01;;;;;;;1999.90;999.90;;;1.50;99.90;;;;;;5001342;28;20121;-78
2024/01/06 07:22:27;;;;;;;1999.90;999.90;;;1.40;99.90;;;;;;4983695;28;20117;-78
2024/01/06 07:24:52;;;;;;;1999.90;999.90;;;1.40;99.90;;;;;;5000388;28;20578;-77
2024/01/06 07:27:18;;;;;;;1999.90;999.90;;;1.50;99.90;;;;;;4982615;28;20088;-78
2024/01/06 07:29:43;;;;;;;1999.90;999.90;;;1.50;99.90;;;;;;5001662;28;20044;-78
2024/01/06 07:32:09;;;;;;;1999.90;999.90;;;1.50;99.90;;;;;;5000290;28;20548;-77
2024/01/06 07:34:35;;;;;;;1999.90;999.90;;;1.50;99.90;;;;;;4998497;28;20038;-79
2024/01/06 07:37:00;;;;;;;1999.90;999.90;;;1.50;99.90;;;;;;5004915;28;20661;-77
2024/01/06 07:39:26;;;;;;;1999.90;999.90;;;1.50;99.90;;;;;;4988494;28;20148;-78
2024/01/06 07:41:52;;;;;;;1999.90;999.90;;;1.60;99.90;;;;;;4981819;28;20037;-77
2024/01/06 07:44:24;;;;;;;1999.90;999.90;;;1.60;99.90;;;;;;4992565;28;20053;-78
2024/01/06 07:46:50;;;;;;;1999.90;999.90;;;1.60;99.90;;;;;;5006822;28;20030;-77
2024/01/06 07:49:16;;;;;;;1999.90;999.90;;;1.60;99.90;;;;;;5003516;28;20049;-77
2024/01/06 07:51:41;;;;;;;1999.90;999.90;;;1.60;99.90;;;;;;5004544;28;20046;-77
2024/01/06 07:54:08;;;;;;;1999.90;999.90;;;1.60;99.90;;;;;;5003243;28;20041;-77
2024/01/06 07:56:34;;;;;;;1999.90;999.90;;;1.60;99.90;;;;;;5002795;28;20101;-78
2024/01/06 07:59:01;;;;;;;1999.90;999.90;;;1.60;99.90;;;;;;5003625;28;20069;-78
2024/01/06 08:01:27;;;;;;;1999.90;999.90;;;1.60;99.90;;;;;;5004992;28;20426;-78
2024/01/06 08:03:52;;;;;;;1999.90;999.90;;;1.50;99.90;;;;;;5001710;28;20118;-78
2024/01/06 08:06:18;;;;;;;1999.90;999.90;;;1.60;99.90;;;;;;5004942;28;20038;-78
2024/01/06 08:08:45;;;;;;;1999.90;999.90;;;1.70;99.90;;;;;;4999815;28;20121;-78
2024/01/06 08:11:11;;;;;;;1999.90;999.90;;;1.70;99.90;;;;;;5008197;28;20041;-78
2024/01/06 08:13:37;;;;;;;1999.90;999.90;;;1.70;99.90;;;;;;5000289;28;20046;-78
2024/01/06 08:16:03;;;;;;;1999.90;999.90;;;1.60;99.90;;;;;;4985464;28;20039;-78
2024/01/06 08:18:29;;;;;;;1999.90;999.90;;;1.70;99.90;;;;;;4991071;28;20054;-79
2024/01/06 08:20:54;;;;;;;1999.90;999.90;;;1.70;99.90;;;;;;4988534;28;20177;-79
2024/01/06 08:23:20;;;;;;;1999.90;999.90;;;1.70;99.90;;;;;;5004091;28;20065;-79
2024/01/06 08:25:46;;;;;;;1999.90;999.90;;;1.70;99.90;;;;;;5009180;28;20046;-78
2024/01/06 08:28:12;;;;;;;1999.90;999.90;;;1.70;99.90;;;;;;5010914;28;20041;-78
2024/01/06 08:30:37;;;;;;;1999.90;999.90;;;1.70;99.90;;;;;;5006885;28;20494;-78
2024/01/06 08:33:03;;;;;;;1999.90;999.90;;;2.20;99.90;;;;;;4989616;28;20070;-79
2024/01/06 08:35:30;;;;;;;1999.90;999.90;;;1.70;99.90;;;;;;5003861;28;20038;-78
2024/01/06 08:37:55;;;;;;;1999.90;999.90;;;1.70;99.90;;;;;;5011984;28;20414;-78
2024/01/06 08:40:21;;;;;;;1999.90;999.90;;;1.70;99.90;;;;;;5005646;28;20125;-79
2024/01/06 08:42:47;;;;;;;1999.90;999.90;;;1.70;99.90;;;;;;5009439;28;20046;-80
2024/01/06 08:45:12;;;;;;;1999.90;999.90;;;1.70;99.90;;;;;;5012634;28;20030;-79
2024/01/06 08:47:38;;;;;;;1999.90;999.90;;;1.70;99.90;;;;;;4994101;28;20077;-77
2024/01/06 08:50:04;;;;;;;1999.90;999.90;;;1.70;99.90;;;;;;5006021;28;20398;-80
2024/01/06 08:52:30;;;;;;;1999.90;999.90;;;1.70;99.90;;;;;;4992523;28;20039;-79
2024/01/06 08:54:55;;;;;;;1999.90;999.90;;;1.60;99.90;;;;;;5019422;28;20041;-80
2024/01/06 08:57:21;;;;;;;1999.90;999.90;;;1.70;99.90;;;;;;4993434;28;20053;-80
2024/01/06 08:59:47;;;;;;;1999.90;999.90;;;1.70;99.90;;;;;;4990879;28;20049;-80
2024/01/06 09:02:12;;;;;;;1999.90;999.90;;;1.70;99.90;;;;;;5010377;28;20050;-79
2024/01/06 09:04:38;;;;;;;1999.90;999.90;;;1.80;99.90;;;;;;5012106;28;20160;-79
2024/01/06 09:07:05;;;;;;;1999.90;999.90;;;1.80;99.90;;;;;;4997829;28;20029;-80
2024/01/06 09:09:30;;;;;;;1999.90;999.90;;;1.80;99.90;;;;;;4994011;28;20062;-79
2024/01/06 09:11:56;;;;;;;1999.90;999.90;;;1.80;99.90;;;;;;4996610;28;20037;-80
2024/01/06 09:14:21;;;;;;;1999.90;999.90;;;1.80;99.90;;;;;;4998562;28;20096;-79
2024/01/06 09:16:47;;;;;;;1999.90;999.90;;;2.20;99.90;;;;;;5012545;28;20546;-80
2024/01/06 09:19:15;;;;;;;1999.90;999.90;;;1.80;99.90;;;;;;5002420;28;20054;-80
2024/01/06 09:21:41;;;;;;;1999.90;999.90;;;1.80;99.90;;;;;;4990333;28;20038;-80
2024/01/06 09:24:07;;;;;;;1999.90;999.90;;;1.80;99.90;;;;;;4993270;28;20619;-80
2024/01/06 09:26:33;;;;;;;1999.90;999.90;;;1.80;99.90;;;;;;4988404;28;20134;-79
2024/01/06 09:29:00;;;;;;;1999.90;999.90;;;1.80;99.90;;;;;;5010046;28;20087;-80
2024/01/06 09:31:27;;;;;;;1999.90;999.90;;;1.80;99.90;;;;;;5009642;28;20052;-80
2024/01/06 09:33:52;;;;;;;1999.90;999.90;;;1.80;99.90;;;;;;5009062;28;20069;-80
2024/01/06 09:36:18;;;;;;;1999.90;999.90;;;1.80;99.90;;;;;;5006737;28;20030;-79
2024/01/06 09:38:44;;;;;;;1999.90;999.90;;;1.80;99.90;;;;;;5007493;28;20045;-79
2024/01/06 09:41:10;;;;;;;1999.90;999.90;;;1.90;99.90;;;;;;4992628;28;20038;-80
2024/01/06 09:43:37;;;;;;;1999.90;999.90;;;1.90;99.90;;;;;;4991305;28;20034;-79
2024/01/06 09:46:11;;;;;;;1999.90;999.90;;;2.30;99.90;;;;;;4995329;28;20130;-79
2024/01/06 09:48:43;;;;;;;1999.90;999.90;;;1.90;99.90;;;;;;5006920;28;20038;-79
2024/01/06 09:51:13;;;;;;;1999.90;999.90;;;1.90;99.90;;;;;;4990528;28;20069;-81
2024/01/06 09:54:07;;;;;;;1999.90;999.90;;;1.90;99.90;;;;;;5002507;28;20081;-80
2024/01/06 09:56:34;;;;;;;1999.90;999.90;;;2.20;99.90;;;;;;4996468;28;20095;-80
2024/01/06 09:59:01;;;;;;;1999.90;999.90;;;1.90;99.90;;;;;;4991737;28;20053;-79
2024/01/06 10:01:27;;;;;;;1999.90;999.90;;;1.90;99.90;;;;;;5009676;28;20057;-80
2024/01/06 10:03:53;;;;;;;1999.90;999.90;;;1.90;99.90;;;;;;4999837;28;20033;-81
2024/01/06 10:06:20;;;;;;;1999.90;999.90;;;1.90;99.90;;;;;;5013477;28;20045;-79
2024/01/06 10:08:50;;;;;;;1999.90;999.90;;;1.90;99.90;;;;;;5012401;28;20038;-79
2024/01/06 10:11:16;;;;;;;1999.90;999.90;;;1.90;99.90;;;;;;4995675;28;20044;-79
2024/01/06 10:13:42;;;;;;;1999.90;999.90;;;2.40;99.90;;;;;;5007105;28;20038;-79
2024/01/06 10:16:09;;;;;;;1999.90;999.90;;;1.90;99.90;;;;;;4997315;28;20456;-79
2024/01/06 10:18:35;;;;;;;1999.90;999.90;;;1.90;99.90;;;;;;5010691;28;20054;-79
2024/01/06 10:21:05;;;;;;;1999.90;999.90;;;2.90;99.90;;;;;;4990048;28;20046;-80
2024/01/06 10:23:32;;;;;;;1999.90;999.90;;;1.90;99.90;;;;;;4992728;28;20046;-80
2024/01/06 10:25:58;;;;;;;1999.90;999.90;;;1.90;99.90;;;;;;5013289;28;20487;-79
2024/01/06 10:28:24;;;;;;;1999.90;999.90;;;1.80;99.90;;;;;;5008778;28;20038;-81
2024/01/06 10:30:52;;;;;;;1999.90;999.90;;;1.80;99.90;;;;;;5019660;28;20072;-79
2024/01/06 10:33:22;;;;;;;1999.90;999.90;;;1.90;99.90;;;;;;5005339;28;20069;-79
2024/01/06 10:35:49;;;;;;;1999.90;999.90;;;1.90;99.90;;;;;;4993300;28;20050;-79
2024/01/06 10:38:18;;;;;;;1999.90;999.90;;;1.90;99.90;;;;;;5005746;28;20095;-80
2024/01/06 10:41:07;;;;;;;1999.90;999.90;;;1.90;99.90;;;;;;4998364;28;20510;-79
2024/01/06 10:43:40;;;;;;;1999.90;999.90;;;1.90;99.90;;;;;;5005253;28;20049;-79
2024/01/06 10:46:10;;;;;;;1999.90;999.90;;;2.00;99.90;;;;;;5000834;28;20121;-83
2024/01/06 10:48:42;;;;;;;1999.90;999.90;;;2.10;99.90;;;;;;5009855;28;20069;-83
2024/01/06 10:51:08;;;;;;;1999.90;999.90;;;3.10;99.90;;;;;;4997416;28;20042;-79
2024/01/06 10:53:39;;;;;;;1999.90;999.90;;;1.90;99.90;;;;;;4992405;28;20053;-81
2024/01/06 10:56:07;;;;;;;1999.90;999.90;;;3.00;99.90;;;;;;4995704;28;20044;-81
2024/01/06 10:58:42;;;;;;;1999.90;999.90;;;2.00;99.90;;;;;;5009270;28;20053;-81
2024/01/06 11:01:12;;;;;;;1999.90;999.90;;;2.00;99.90;;;;;;4991624;28;20034;-81
2024/01/06 11:03:39;;;;;;;1999.90;999.90;;;1.90;99.90;;;;;;5013325;28;20418;-81
2024/01/06 11:06:07;;;;;;;1999.90;999.90;;;2.60;99.90;;;;;;5003545;28;20062;-81
2024/01/06 11:09:09;;;;;;;1999.90;999.90;;;1.90;99.90;;;;;;5008600;28;20148;-81
2024/01/06 11:11:37;;;;;;;1999.90;999.90;;;1.90;99.90;;;;;;5011497;28;20411;-81
2024/01/06 11:14:20;;;;;;;1999.90;999.90;;;3.20;99.90;;;;;;4993407;28;20546;-81
2024/01/06 11:16:46;;;;;;;1999.90;999.90;;;1.90;99.90;;;;;;4990318;28;20054;-81
2024/01/06 11:19:35;;;;;;;1999.90;999.90;;;1.90;99.90;;;;;;4989441;28;20053;-81
2024/01/06 11:22:31;;;;;;;1999.90;999.90;;;2.00;99.90;;;;;;4985952;28;20081;-81
2024/01/06 11:25:07;;;;;;;1999.90;999.90;;;2.00;99.90;;;;;;4990550;28;20038;-81
2024/01/06 11:27:33;;;;;;;1999.90;999.90;;;2.00;99.90;;;;;;5006154;28;20034;-81
2024/01/06 11:30:00;;;;;;;1999.90;999.90;;;2.00;99.90;;;;;;4993645;28;20042;-81
2024/01/06 11:32:36;;;;;;;1999.90;999.90;;;2.10;99.90;;;;;;4992428;28;20049;-81
2024/01/06 11:35:28;;;;;;;1999.90;999.90;;;2.00;99.90;;;;;;5008761;28;20048;-81
2024/01/06 11:37:56;;;;;;;1999.90;999.90;;;2.00;99.90;;;;;;5007812;28;20050;-81
2024/01/06 11:40:25;;;;;;;1999.90;999.90;;;2.00;99.90;;;;;;4990847;28;20056;-81
2024/01/06 11:43:02;;;;;;;1999.90;999.90;;;2.70;99.90;;;;;;4994465;28;20513;-80
2024/01/06 11:45:29;;;;;;;1999.90;999.90;;;2.10;99.90;;;;;;5004338;28;20406;-81
2024/01/06 11:48:15;;;;;;;1999.90;999.90;;;3.20;99.90;;;;;;4990287;28;20042;-81
2024/01/06 11:50:41;;;;;;;1999.90;999.90;;;2.00;99.90;;;;;;5008650;28;20042;-81
2024/01/06 11:53:09;;;;;;;1999.90;999.90;;;2.10;99.90;;;;;;4988473;28;20053;-81
2024/01/06 11:55:36;;;;;;;1999.90;999.90;;;2.00;99.90;;;;;;5006755;28;20122;-82
2024/01/06 11:58:02;;;;;;;1999.90;999.90;;;2.00;99.90;;;;;;4991695;28;20041;-80
2024/01/06 12:00:29;;;;;;;1999.90;999.90;;;2.00;99.90;;;;;;5009466;28;20548;-81
2024/01/06 12:02:59;;;;;;;1999.90;999.90;;;2.80;99.90;;;;;;4997004;28;20596;-81
2024/01/06 12:05:26;;;;;;;1999.90;999.90;;;2.10;99.90;;;;;;4989480;28;20048;-83
2024/01/06 12:07:57;;;;;;;1999.90;999.90;;;1.90;99.90;;;;;;4995407;28;20026;-81